首页
METAR-TAF:

METAR-TAF

机场 :

安托法加斯塔, 智利

纬度: 23-26S, 经度: 070-26W, 海拔: 135米

当前天气观测

该预报发布于27分钟前的04:00 UTC
风速1节,风向西转西北
温度 14°C
湿度 77%
气压 1016 hPa
能见度10公里或以上
阴天层高于1400英尺

METAR: SCFA 280400Z 30001KT 9999 OVC014 14/10 Q1016 NOSIG

时间: 00:27 (04:27 UTC)

预报

该预报发布于6小时和27分钟前的22:00 UTC
预报有效从28日的 00点(UTC)到 28日的 24点(UTC)
风速7节,风向西南
能见度10公里或以上
阴天层高于1500英尺
成为
从 28日的 06点(UTC)到 28日的 08点(UTC)
风速4节,风向南转南东
成为
从 28日的 16点(UTC)到 28日的 18点(UTC)
风速12节,风向南转西南
少量云层高于1800英尺
成为
从 28日的 20点(UTC)到 28日的 22点(UTC)
阴天层高于1600英尺

TAF: SCFA 272200Z 2800/2824 22007KT 9999 OVC015 TN14/2806Z TX16/2818Z BECMG 2806/2808 16004KT BECMG 2816/2818 20012KT FEW018 BECMG 2820/2822 OVC016

超过4000个机场的气象观测和天气预报(METAR&TAF报告)。

可查询的气象台以黄色和红色小点在地图上表示。

将鼠标移到小点上方,可查看气象台名称。

然后点击查看天气观测和预报。

如需切换地图:点击带黑十字的绿色按钮放大地图;点击带横线的绿色按钮缩小地图;或者点击绿色箭头查看邻近地区的地图。


METAR-TAF: